Terminal Aerodrome Forecast
Issued by NWS

Home | Current Version | Previous Version | Text Only | Print | Product List | Glossary On
Versions: 1 2 3 4 5 6 7 8 9 10 11 12 13 14 15 16 17
000
FTUS43 KBIS 252330
TAFDIK
TAF
KDIK 252330Z 2600/2624 15008KT P6SM VCSH SCT050 BKN100
     FM260300 17007KT P6SM SCT120
     FM260700 23008KT P6SM SCT140
     FM261800 19010KT P6SM SCT140=

USA.gov is the U.S. government's official web portal to all federal, state and local government web resources and services.